sensor_id;sensor_type;location;lat;lon;timestamp;P1;durP1;ratioP1;P2;durP2;ratioP2
20458;SDS011;10388;52.314;7.938;2023-03-23T00:00:57;10.90;;;9.80;;
20458;SDS011;10388;52.314;7.938;2023-03-23T00:03:28;11.87;;;10.03;;
20458;SDS011;10388;52.314;7.938;2023-03-23T00:06:02;10.60;;;9.43;;
20458;SDS011;10388;52.314;7.938;2023-03-23T00:08:37;13.67;;;10.30;;
20458;SDS011;10388;52.314;7.938;2023-03-23T00:11:16;12.47;;;9.83;;
20458;SDS011;10388;52.314;7.938;2023-03-23T00:13:51;11.70;;;10.50;;
20458;SDS011;10388;52.314;7.938;2023-03-23T00:16:23;12.77;;;11.27;;
20458;SDS011;10388;52.314;7.938;2023-03-23T00:19:03;16.87;;;11.10;;
20458;SDS011;10388;52.314;7.938;2023-03-23T00:21:36;12.27;;;10.80;;
20458;SDS011;10388;52.314;7.938;2023-03-23T00:24:09;14.40;;;11.17;;
20458;SDS011;10388;52.314;7.938;2023-03-23T00:26:47;12.13;;;10.67;;
20458;SDS011;10388;52.314;7.938;2023-03-23T00:29:19;14.67;;;10.97;;
20458;SDS011;10388;52.314;7.938;2023-03-23T00:31:52;12.20;;;10.70;;
20458;SDS011;10388;52.314;7.938;2023-03-23T00:34:23;15.13;;;11.90;;
20458;SDS011;10388;52.314;7.938;2023-03-23T00:36:54;17.00;;;11.83;;
20458;SDS011;10388;52.314;7.938;2023-03-23T00:39:28;14.00;;;10.63;;
20458;SDS011;10388;52.314;7.938;2023-03-23T00:41:58;11.77;;;10.33;;
20458;SDS011;10388;52.314;7.938;2023-03-23T00:44:32;12.97;;;11.03;;
20458;SDS011;10388;52.314;7.938;2023-03-23T00:47:05;12.97;;;10.17;;
20458;SDS011;10388;52.314;7.938;2023-03-23T00:49:38;13.03;;;10.40;;
20458;SDS011;10388;52.314;7.938;2023-03-23T00:52:09;11.63;;;10.37;;
20458;SDS011;10388;52.314;7.938;2023-03-23T00:54:40;15.03;;;11.60;;
20458;SDS011;10388;52.314;7.938;2023-03-23T00:57:10;13.27;;;10.33;;
20458;SDS011;10388;52.314;7.938;2023-03-23T00:59:41;11.20;;;10.10;;
20458;SDS011;10388;52.314;7.938;2023-03-23T01:02:11;12.97;;;10.53;;
20458;SDS011;10388;52.314;7.938;2023-03-23T01:04:42;12.43;;;10.63;;
20458;SDS011;10388;52.314;7.938;2023-03-23T01:07:14;12.00;;;10.70;;
20458;SDS011;10388;52.314;7.938;2023-03-23T01:09:47;11.73;;;10.37;;
20458;SDS011;10388;52.314;7.938;2023-03-23T01:12:18;11.43;;;9.87;;
20458;SDS011;10388;52.314;7.938;2023-03-23T04:32:42;2.60;;;2.40;;
20458;SDS011;10388;52.314;7.938;2023-03-23T04:35:13;3.43;;;2.77;;
20458;SDS011;10388;52.314;7.938;2023-03-23T04:37:44;4.00;;;2.70;;
20458;SDS011;10388;52.314;7.938;2023-03-23T04:40:16;4.40;;;2.60;;
20458;SDS011;10388;52.314;7.938;2023-03-23T04:42:47;3.60;;;3.20;;
20458;SDS011;10388;52.314;7.938;2023-03-23T04:45:19;3.23;;;2.93;;
20458;SDS011;10388;52.314;7.938;2023-03-23T04:47:52;5.40;;;2.77;;
20458;SDS011;10388;52.314;7.938;2023-03-23T04:50:28;3.10;;;2.83;;
20458;SDS011;10388;52.314;7.938;2023-03-23T04:53:01;2.70;;;2.33;;
20458;SDS011;10388;52.314;7.938;2023-03-23T04:55:35;3.50;;;2.70;;
20458;SDS011;10388;52.314;7.938;2023-03-23T04:58:06;3.20;;;2.70;;
20458;SDS011;10388;52.314;7.938;2023-03-23T05:00:38;3.97;;;2.80;;
20458;SDS011;10388;52.314;7.938;2023-03-23T05:03:09;3.93;;;3.27;;
20458;SDS011;10388;52.314;7.938;2023-03-23T05:05:41;3.93;;;2.67;;
20458;SDS011;10388;52.314;7.938;2023-03-23T05:08:13;5.60;;;2.97;;
20458;SDS011;10388;52.314;7.938;2023-03-23T05:10:49;3.23;;;2.73;;
20458;SDS011;10388;52.314;7.938;2023-03-23T05:13:23;3.20;;;2.90;;
20458;SDS011;10388;52.314;7.938;2023-03-23T05:15:54;5.30;;;3.10;;
20458;SDS011;10388;52.314;7.938;2023-03-23T05:18:25;3.07;;;2.83;;
20458;SDS011;10388;52.314;7.938;2023-03-23T05:20:59;3.97;;;3.10;;
20458;SDS011;10388;52.314;7.938;2023-03-23T05:23:30;4.13;;;3.40;;
20458;SDS011;10388;52.314;7.938;2023-03-23T05:26:03;3.47;;;3.17;;
20458;SDS011;10388;52.314;7.938;2023-03-23T05:28:34;3.40;;;3.10;;
20458;SDS011;10388;52.314;7.938;2023-03-23T05:31:06;3.70;;;3.17;;
20458;SDS011;10388;52.314;7.938;2023-03-23T05:33:36;4.63;;;3.23;;
20458;SDS011;10388;52.314;7.938;2023-03-23T05:36:07;3.37;;;3.07;;
20458;SDS011;10388;52.314;7.938;2023-03-23T05:38:40;5.17;;;3.33;;
20458;SDS011;10388;52.314;7.938;2023-03-23T05:41:15;3.23;;;2.90;;
20458;SDS011;10388;52.314;7.938;2023-03-23T05:43:45;3.60;;;3.30;;
20458;SDS011;10388;52.314;7.938;2023-03-23T05:46:16;3.33;;;2.63;;
20458;SDS011;10388;52.314;7.938;2023-03-23T05:48:46;3.57;;;3.10;;
20458;SDS011;10388;52.314;7.938;2023-03-23T05:51:17;3.03;;;2.73;;
20458;SDS011;10388;52.314;7.938;2023-03-23T05:53:48;3.57;;;2.90;;
20458;SDS011;10388;52.314;7.938;2023-03-23T05:56:19;3.10;;;2.80;;
20458;SDS011;10388;52.314;7.938;2023-03-23T05:58:49;3.10;;;2.80;;
20458;SDS011;10388;52.314;7.938;2023-03-23T06:01:20;3.63;;;3.07;;
20458;SDS011;10388;52.314;7.938;2023-03-23T06:03:50;3.67;;;3.33;;
20458;SDS011;10388;52.314;7.938;2023-03-23T06:06:24;4.17;;;2.77;;
20458;SDS011;10388;52.314;7.938;2023-03-23T06:08:56;3.43;;;2.97;;
20458;SDS011;10388;52.314;7.938;2023-03-23T06:11:26;2.90;;;2.60;;
20458;SDS011;10388;52.314;7.938;2023-03-23T06:13:57;3.53;;;3.00;;
20458;SDS011;10388;52.314;7.938;2023-03-23T06:16:27;5.50;;;2.73;;
20458;SDS011;10388;52.314;7.938;2023-03-23T06:18:58;3.00;;;2.77;;
20458;SDS011;10388;52.314;7.938;2023-03-23T06:21:30;3.13;;;2.73;;
20458;SDS011;10388;52.314;7.938;2023-03-23T06:24:01;3.30;;;3.00;;
20458;SDS011;10388;52.314;7.938;2023-03-23T06:26:35;5.53;;;2.70;;
20458;SDS011;10388;52.314;7.938;2023-03-23T06:29:07;3.33;;;2.67;;
20458;SDS011;10388;52.314;7.938;2023-03-23T06:31:42;2.87;;;2.57;;
20458;SDS011;10388;52.314;7.938;2023-03-23T06:34:17;3.97;;;2.80;;
20458;SDS011;10388;52.314;7.938;2023-03-23T06:36:48;3.83;;;2.67;;
20458;SDS011;10388;52.314;7.938;2023-03-23T06:39:19;3.00;;;2.70;;
20458;SDS011;10388;52.314;7.938;2023-03-23T06:41:49;3.00;;;2.60;;
20458;SDS011;10388;52.314;7.938;2023-03-23T06:44:20;3.10;;;2.70;;
20458;SDS011;10388;52.314;7.938;2023-03-23T06:46:50;3.17;;;2.67;;
20458;SDS011;10388;52.314;7.938;2023-03-23T06:49:21;4.17;;;2.60;;
20458;SDS011;10388;52.314;7.938;2023-03-23T06:51:53;3.93;;;2.63;;
20458;SDS011;10388;52.314;7.938;2023-03-23T06:54:26;4.13;;;2.57;;
20458;SDS011;10388;52.314;7.938;2023-03-23T06:56:57;3.63;;;2.60;;
20458;SDS011;10388;52.314;7.938;2023-03-23T06:59:27;5.03;;;2.67;;
20458;SDS011;10388;52.314;7.938;2023-03-23T07:01:58;3.40;;;2.37;;
20458;SDS011;10388;52.314;7.938;2023-03-23T07:04:28;2.60;;;2.30;;
20458;SDS011;10388;52.314;7.938;2023-03-23T07:06:59;2.97;;;2.40;;
20458;SDS011;10388;52.314;7.938;2023-03-23T07:09:29;5.73;;;2.77;;
20458;SDS011;10388;52.314;7.938;2023-03-23T07:12:00;3.90;;;2.77;;
20458;SDS011;10388;52.314;7.938;2023-03-23T07:14:31;4.93;;;2.53;;
20458;SDS011;10388;52.314;7.938;2023-03-23T07:17:02;4.43;;;2.80;;
20458;SDS011;10388;52.314;7.938;2023-03-23T07:19:33;2.77;;;2.40;;
20458;SDS011;10388;52.314;7.938;2023-03-23T07:22:05;2.73;;;2.40;;
20458;SDS011;10388;52.314;7.938;2023-03-23T07:24:37;6.07;;;2.50;;
20458;SDS011;10388;52.314;7.938;2023-03-23T07:27:07;4.53;;;2.23;;
20458;SDS011;10388;52.314;7.938;2023-03-23T07:29:39;4.57;;;2.70;;
20458;SDS011;10388;52.314;7.938;2023-03-23T07:32:10;4.70;;;2.50;;
20458;SDS011;10388;52.314;7.938;2023-03-23T07:34:41;6.57;;;2.70;;
20458;SDS011;10388;52.314;7.938;2023-03-23T07:37:12;4.10;;;2.27;;
20458;SDS011;10388;52.314;7.938;2023-03-23T07:39:43;3.10;;;2.30;;
20458;SDS011;10388;52.314;7.938;2023-03-23T07:42:13;4.43;;;2.70;;
20458;SDS011;10388;52.314;7.938;2023-03-23T07:44:44;5.13;;;2.40;;
20458;SDS011;10388;52.314;7.938;2023-03-23T07:47:15;3.47;;;2.40;;
20458;SDS011;10388;52.314;7.938;2023-03-23T07:49:47;2.53;;;2.23;;
20458;SDS011;10388;52.314;7.938;2023-03-23T07:52:18;3.57;;;2.20;;
20458;SDS011;10388;52.314;7.938;2023-03-23T07:54:49;4.00;;;2.60;;
20458;SDS011;10388;52.314;7.938;2023-03-23T07:57:19;3.20;;;2.13;;
20458;SDS011;10388;52.314;7.938;2023-03-23T07:59:50;4.77;;;2.40;;
20458;SDS011;10388;52.314;7.938;2023-03-23T08:02:21;3.50;;;2.20;;
20458;SDS011;10388;52.314;7.938;2023-03-23T08:04:52;4.53;;;2.73;;
20458;SDS011;10388;52.314;7.938;2023-03-23T08:07:23;2.37;;;2.17;;
20458;SDS011;10388;52.314;7.938;2023-03-23T08:09:54;3.47;;;2.10;;
20458;SDS011;10388;52.314;7.938;2023-03-23T08:12:24;2.70;;;2.13;;
20458;SDS011;10388;52.314;7.938;2023-03-23T08:14:55;5.13;;;2.63;;
20458;SDS011;10388;52.314;7.938;2023-03-23T08:17:25;4.07;;;2.50;;
20458;SDS011;10388;52.314;7.938;2023-03-23T08:19:56;3.50;;;2.23;;
20458;SDS011;10388;52.314;7.938;2023-03-23T08:22:27;4.70;;;2.97;;
20458;SDS011;10388;52.314;7.938;2023-03-23T08:24:59;3.33;;;2.30;;
20458;SDS011;10388;52.314;7.938;2023-03-23T08:27:30;5.73;;;2.40;;
20458;SDS011;10388;52.314;7.938;2023-03-23T08:30:02;5.07;;;2.23;;
20458;SDS011;10388;52.314;7.938;2023-03-23T08:32:34;3.10;;;2.23;;
20458;SDS011;10388;52.314;7.938;2023-03-23T08:35:06;5.00;;;2.60;;
20458;SDS011;10388;52.314;7.938;2023-03-23T08:37:39;5.70;;;2.30;;
20458;SDS011;10388;52.314;7.938;2023-03-23T08:40:12;4.10;;;2.10;;
20458;SDS011;10388;52.314;7.938;2023-03-23T08:42:44;3.50;;;2.20;;
20458;SDS011;10388;52.314;7.938;2023-03-23T08:45:16;5.10;;;2.33;;
20458;SDS011;10388;52.314;7.938;2023-03-23T08:47:49;2.73;;;1.93;;
20458;SDS011;10388;52.314;7.938;2023-03-23T08:50:24;5.10;;;2.60;;
20458;SDS011;10388;52.314;7.938;2023-03-23T08:52:57;3.70;;;2.17;;
20458;SDS011;10388;52.314;7.938;2023-03-23T08:55:28;6.40;;;2.47;;
20458;SDS011;10388;52.314;7.938;2023-03-23T08:57:59;4.63;;;2.50;;
20458;SDS011;10388;52.314;7.938;2023-03-23T09:00:30;4.77;;;2.27;;
20458;SDS011;10388;52.314;7.938;2023-03-23T09:03:01;3.87;;;2.13;;
20458;SDS011;10388;52.314;7.938;2023-03-23T09:05:32;3.73;;;2.33;;
20458;SDS011;10388;52.314;7.938;2023-03-23T09:08:03;6.20;;;2.50;;
20458;SDS011;10388;52.314;7.938;2023-03-23T09:10:34;3.60;;;2.07;;
20458;SDS011;10388;52.314;7.938;2023-03-23T09:13:07;6.20;;;2.10;;
20458;SDS011;10388;52.314;7.938;2023-03-23T09:15:38;9.47;;;2.07;;
20458;SDS011;10388;52.314;7.938;2023-03-23T09:18:08;3.53;;;2.40;;
20458;SDS011;10388;52.314;7.938;2023-03-23T09:20:39;6.53;;;2.00;;
20458;SDS011;10388;52.314;7.938;2023-03-23T09:23:10;3.60;;;1.90;;
20458;SDS011;10388;52.314;7.938;2023-03-23T09:25:43;4.90;;;2.23;;
20458;SDS011;10388;52.314;7.938;2023-03-23T09:28:14;5.87;;;2.23;;
20458;SDS011;10388;52.314;7.938;2023-03-23T09:30:44;4.03;;;1.67;;
20458;SDS011;10388;52.314;7.938;2023-03-23T09:33:15;4.47;;;1.63;;
20458;SDS011;10388;52.314;7.938;2023-03-23T09:35:46;3.40;;;1.83;;
20458;SDS011;10388;52.314;7.938;2023-03-23T09:38:16;2.67;;;1.67;;
20458;SDS011;10388;52.314;7.938;2023-03-23T09:40:48;1.70;;;1.00;;
20458;SDS011;10388;52.314;7.938;2023-03-23T09:43:29;3.13;;;1.10;;
20458;SDS011;10388;52.314;7.938;2023-03-23T09:48:55;2.87;;;1.00;;
20458;SDS011;10388;52.314;7.938;2023-03-23T09:54:11;1.60;;;0.90;;
20458;SDS011;10388;52.314;7.938;2023-03-23T09:56:47;1.70;;;1.10;;
20458;SDS011;10388;52.314;7.938;2023-03-23T09:59:20;1.93;;;1.00;;
20458;SDS011;10388;52.314;7.938;2023-03-23T10:04:50;1.10;;;0.90;;
20458;SDS011;10388;52.314;7.938;2023-03-23T10:07:23;2.77;;;0.90;;
20458;SDS011;10388;52.314;7.938;2023-03-23T10:09:56;1.50;;;0.80;;
20458;SDS011;10388;52.314;7.938;2023-03-23T10:12:40;1.87;;;0.90;;
20458;SDS011;10388;52.314;7.938;2023-03-23T10:15:16;0.80;;;0.80;;
20458;SDS011;10388;52.314;7.938;2023-03-23T10:18:01;2.13;;;1.00;;
20458;SDS011;10388;52.314;7.938;2023-03-23T10:21:01;3.00;;;1.27;;
20458;SDS011;10388;52.314;7.938;2023-03-23T10:23:44;1.33;;;0.83;;
20458;SDS011;10388;52.314;7.938;2023-03-23T10:31:37;3.03;;;1.53;;
20458;SDS011;10388;52.314;7.938;2023-03-23T10:34:17;2.60;;;1.20;;
20458;SDS011;10388;52.314;7.938;2023-03-23T10:37:13;3.13;;;1.20;;
20458;SDS011;10388;52.314;7.938;2023-03-23T10:42:31;1.10;;;1.00;;
20458;SDS011;10388;52.314;7.938;2023-03-23T10:48:20;1.10;;;0.87;;
20458;SDS011;10388;52.314;7.938;2023-03-23T10:51:00;3.03;;;1.00;;
20458;SDS011;10388;52.314;7.938;2023-03-23T10:53:37;2.13;;;1.10;;
20458;SDS011;10388;52.314;7.938;2023-03-23T10:56:24;1.40;;;1.13;;
20458;SDS011;10388;52.314;7.938;2023-03-23T10:58:57;1.80;;;0.90;;
20458;SDS011;10388;52.314;7.938;2023-03-23T11:01:29;2.67;;;1.00;;
20458;SDS011;10388;52.314;7.938;2023-03-23T11:04:01;1.93;;;1.17;;
20458;SDS011;10388;52.314;7.938;2023-03-23T11:06:34;2.17;;;0.83;;
20458;SDS011;10388;52.314;7.938;2023-03-23T11:09:13;2.13;;;1.00;;
20458;SDS011;10388;52.314;7.938;2023-03-23T11:11:49;2.17;;;1.00;;
20458;SDS011;10388;52.314;7.938;2023-03-23T11:14:26;0.90;;;0.90;;
20458;SDS011;10388;52.314;7.938;2023-03-23T11:16:59;1.27;;;0.90;;
20458;SDS011;10388;52.314;7.938;2023-03-23T11:19:32;1.40;;;0.83;;
20458;SDS011;10388;52.314;7.938;2023-03-23T11:22:09;1.83;;;0.90;;
20458;SDS011;10388;52.314;7.938;2023-03-23T11:24:47;1.20;;;0.90;;
20458;SDS011;10388;52.314;7.938;2023-03-23T11:27:21;1.80;;;1.10;;
20458;SDS011;10388;52.314;7.938;2023-03-23T11:29:55;1.40;;;0.90;;
20458;SDS011;10388;52.314;7.938;2023-03-23T11:32:29;1.20;;;0.80;;
20458;SDS011;10388;52.314;7.938;2023-03-23T11:35:02;1.10;;;0.90;;
20458;SDS011;10388;52.314;7.938;2023-03-23T11:37:37;2.23;;;0.97;;
20458;SDS011;10388;52.314;7.938;2023-03-23T11:40:16;2.17;;;0.93;;
20458;SDS011;10388;52.314;7.938;2023-03-23T11:51:05;2.73;;;1.10;;
20458;SDS011;10388;52.314;7.938;2023-03-23T11:56:47;2.67;;;1.13;;
20458;SDS011;10388;52.314;7.938;2023-03-23T11:59:25;1.47;;;0.70;;
20458;SDS011;10388;52.314;7.938;2023-03-23T12:05:25;2.00;;;1.37;;
20458;SDS011;10388;52.314;7.938;2023-03-23T12:08:10;1.70;;;1.00;;
20458;SDS011;10388;52.314;7.938;2023-03-23T12:13:54;2.17;;;0.80;;
20458;SDS011;10388;52.314;7.938;2023-03-23T12:25:19;3.43;;;1.07;;
20458;SDS011;10388;52.314;7.938;2023-03-23T12:27:55;2.07;;;1.03;;
20458;SDS011;10388;52.314;7.938;2023-03-23T12:30:57;2.17;;;0.90;;
20458;SDS011;10388;52.314;7.938;2023-03-23T12:33:51;2.30;;;0.80;;
20458;SDS011;10388;52.314;7.938;2023-03-23T12:36:48;3.47;;;1.20;;
20458;SDS011;10388;52.314;7.938;2023-03-23T12:42:07;2.30;;;1.23;;
20458;SDS011;10388;52.314;7.938;2023-03-23T12:44:46;2.20;;;0.90;;
20458;SDS011;10388;52.314;7.938;2023-03-23T12:50:28;3.00;;;0.90;;
20458;SDS011;10388;52.314;7.938;2023-03-23T12:53:11;2.07;;;0.77;;
20458;SDS011;10388;52.314;7.938;2023-03-23T12:58:42;1.67;;;0.80;;
20458;SDS011;10388;52.314;7.938;2023-03-23T13:01:19;2.50;;;0.90;;
20458;SDS011;10388;52.314;7.938;2023-03-23T13:03:58;1.77;;;0.80;;
20458;SDS011;10388;52.314;7.938;2023-03-23T13:06:37;1.27;;;0.70;;
20458;SDS011;10388;52.314;7.938;2023-03-23T13:12:18;1.47;;;0.90;;
20458;SDS011;10388;52.314;7.938;2023-03-23T13:15:00;1.03;;;0.80;;
20458;SDS011;10388;52.314;7.938;2023-03-23T13:23:16;2.70;;;0.80;;
20458;SDS011;10388;52.314;7.938;2023-03-23T13:26:00;2.50;;;0.80;;
20458;SDS011;10388;52.314;7.938;2023-03-23T13:29:21;1.40;;;1.00;;
20458;SDS011;10388;52.314;7.938;2023-03-23T13:31:29;1.30;;;0.87;;
20458;SDS011;10388;52.314;7.938;2023-03-23T13:34:06;1.57;;;0.97;;
20458;SDS011;10388;52.314;7.938;2023-03-23T13:36:54;2.27;;;1.00;;
20458;SDS011;10388;52.314;7.938;2023-03-23T13:39:26;1.87;;;0.80;;
20458;SDS011;10388;52.314;7.938;2023-03-23T13:49:57;1.80;;;0.80;;
20458;SDS011;10388;52.314;7.938;2023-03-23T13:56:16;2.03;;;1.00;;
20458;SDS011;10388;52.314;7.938;2023-03-23T13:58:23;3.77;;;1.23;;
20458;SDS011;10388;52.314;7.938;2023-03-23T14:01:14;4.20;;;1.37;;
20458;SDS011;10388;52.314;7.938;2023-03-23T14:03:48;1.53;;;0.93;;
20458;SDS011;10388;52.314;7.938;2023-03-23T14:06:21;2.27;;;0.90;;
20458;SDS011;10388;52.314;7.938;2023-03-23T14:08:54;2.03;;;1.03;;
20458;SDS011;10388;52.314;7.938;2023-03-23T14:11:26;1.47;;;1.00;;
20458;SDS011;10388;52.314;7.938;2023-03-23T14:14:06;1.90;;;0.90;;
20458;SDS011;10388;52.314;7.938;2023-03-23T14:16:48;2.13;;;0.87;;
20458;SDS011;10388;52.314;7.938;2023-03-23T14:19:27;2.23;;;1.40;;
20458;SDS011;10388;52.314;7.938;2023-03-23T14:22:00;2.47;;;1.10;;
20458;SDS011;10388;52.314;7.938;2023-03-23T14:24:33;2.57;;;0.90;;
20458;SDS011;10388;52.314;7.938;2023-03-23T14:27:10;0.97;;;0.90;;
20458;SDS011;10388;52.314;7.938;2023-03-23T14:29:42;2.17;;;0.83;;
20458;SDS011;10388;52.314;7.938;2023-03-23T14:32:17;2.03;;;0.90;;
20458;SDS011;10388;52.314;7.938;2023-03-23T14:34:49;1.37;;;0.90;;
20458;SDS011;10388;52.314;7.938;2023-03-23T14:37:20;1.13;;;0.90;;
20458;SDS011;10388;52.314;7.938;2023-03-23T14:39:52;2.10;;;1.20;;
20458;SDS011;10388;52.314;7.938;2023-03-23T14:42:28;1.10;;;0.80;;
20458;SDS011;10388;52.314;7.938;2023-03-23T14:45:01;2.30;;;0.90;;
20458;SDS011;10388;52.314;7.938;2023-03-23T14:47:35;3.33;;;1.00;;
20458;SDS011;10388;52.314;7.938;2023-03-23T14:53:18;1.10;;;0.87;;
20458;SDS011;10388;52.314;7.938;2023-03-23T14:56:01;2.73;;;1.03;;
20458;SDS011;10388;52.314;7.938;2023-03-23T14:58:34;2.77;;;1.27;;
20458;SDS011;10388;52.314;7.938;2023-03-23T15:01:13;1.30;;;1.00;;
20458;SDS011;10388;52.314;7.938;2023-03-23T15:03:52;2.57;;;1.00;;
20458;SDS011;10388;52.314;7.938;2023-03-23T15:06:27;3.00;;;1.30;;
20458;SDS011;10388;52.314;7.938;2023-03-23T15:09:00;1.47;;;1.27;;
20458;SDS011;10388;52.314;7.938;2023-03-23T15:11:34;1.57;;;1.30;;
20458;SDS011;10388;52.314;7.938;2023-03-23T15:14:13;4.00;;;1.37;;
20458;SDS011;10388;52.314;7.938;2023-03-23T15:16:47;2.53;;;1.40;;
20458;SDS011;10388;52.314;7.938;2023-03-23T15:19:20;4.80;;;1.90;;
20458;SDS011;10388;52.314;7.938;2023-03-23T15:21:57;3.57;;;1.60;;
20458;SDS011;10388;52.314;7.938;2023-03-23T15:24:42;3.10;;;2.23;;
20458;SDS011;10388;52.314;7.938;2023-03-23T15:27:16;2.30;;;1.70;;
20458;SDS011;10388;52.314;7.938;2023-03-23T15:29:54;2.23;;;1.90;;
20458;SDS011;10388;52.314;7.938;2023-03-23T15:32:28;2.53;;;1.93;;
20458;SDS011;10388;52.314;7.938;2023-03-23T15:35:02;2.20;;;1.10;;
20458;SDS011;10388;52.314;7.938;2023-03-23T15:37:42;3.50;;;1.43;;
20458;SDS011;10388;52.314;7.938;2023-03-23T15:40:16;4.00;;;1.27;;
20458;SDS011;10388;52.314;7.938;2023-03-23T15:42:49;1.77;;;1.00;;
20458;SDS011;10388;52.314;7.938;2023-03-23T15:45:34;1.10;;;0.77;;
20458;SDS011;10388;52.314;7.938;2023-03-23T15:48:12;3.17;;;0.90;;
20458;SDS011;10388;52.314;7.938;2023-03-23T15:50:43;1.80;;;0.83;;
20458;SDS011;10388;52.314;7.938;2023-03-23T15:56:00;3.33;;;0.80;;
20458;SDS011;10388;52.314;7.938;2023-03-23T15:58:32;2.00;;;1.10;;
20458;SDS011;10388;52.314;7.938;2023-03-23T16:01:13;0.70;;;0.70;;
20458;SDS011;10388;52.314;7.938;2023-03-23T16:04:04;1.03;;;0.80;;
20458;SDS011;10388;52.314;7.938;2023-03-23T16:06:40;1.97;;;0.80;;
20458;SDS011;10388;52.314;7.938;2023-03-23T16:09:13;1.10;;;0.70;;
20458;SDS011;10388;52.314;7.938;2023-03-23T16:11:45;1.10;;;0.90;;
20458;SDS011;10388;52.314;7.938;2023-03-23T16:14:16;1.03;;;0.90;;
20458;SDS011;10388;52.314;7.938;2023-03-23T16:16:47;1.77;;;0.90;;
20458;SDS011;10388;52.314;7.938;2023-03-23T16:19:19;1.27;;;0.67;;
20458;SDS011;10388;52.314;7.938;2023-03-23T16:21:53;0.80;;;0.80;;
20458;SDS011;10388;52.314;7.938;2023-03-23T16:24:23;1.10;;;0.80;;
20458;SDS011;10388;52.314;7.938;2023-03-23T16:26:54;1.33;;;0.90;;
20458;SDS011;10388;52.314;7.938;2023-03-23T16:29:24;1.27;;;1.10;;
20458;SDS011;10388;52.314;7.938;2023-03-23T16:31:55;4.10;;;1.20;;
20458;SDS011;10388;52.314;7.938;2023-03-23T16:34:26;2.73;;;1.70;;
20458;SDS011;10388;52.314;7.938;2023-03-23T16:36:58;2.10;;;1.77;;
20458;SDS011;10388;52.314;7.938;2023-03-23T16:39:29;4.67;;;2.30;;
20458;SDS011;10388;52.314;7.938;2023-03-23T16:42:00;4.07;;;2.80;;
20458;SDS011;10388;52.314;7.938;2023-03-23T16:44:30;5.87;;;4.37;;
20458;SDS011;10388;52.314;7.938;2023-03-23T16:49:34;6.20;;;4.17;;
20458;SDS011;10388;52.314;7.938;2023-03-23T16:52:05;6.27;;;4.10;;
20458;SDS011;10388;52.314;7.938;2023-03-23T16:54:36;3.90;;;3.20;;
20458;SDS011;10388;52.314;7.938;2023-03-23T16:57:06;4.87;;;3.13;;
20458;SDS011;10388;52.314;7.938;2023-03-23T16:59:37;5.20;;;3.70;;
20458;SDS011;10388;52.314;7.938;2023-03-23T17:02:09;6.10;;;3.70;;
20458;SDS011;10388;52.314;7.938;2023-03-23T17:04:44;7.33;;;3.77;;
20458;SDS011;10388;52.314;7.938;2023-03-23T17:07:15;7.13;;;4.77;;
20458;SDS011;10388;52.314;7.938;2023-03-23T17:09:45;8.73;;;7.90;;
20458;SDS011;10388;52.314;7.938;2023-03-23T17:12:16;7.00;;;5.60;;
20458;SDS011;10388;52.314;7.938;2023-03-23T17:14:47;6.63;;;4.30;;
20458;SDS011;10388;52.314;7.938;2023-03-23T17:17:18;5.77;;;3.77;;
20458;SDS011;10388;52.314;7.938;2023-03-23T17:19:48;6.43;;;3.87;;
20458;SDS011;10388;52.314;7.938;2023-03-23T17:22:19;5.13;;;3.77;;
20458;SDS011;10388;52.314;7.938;2023-03-23T17:24:50;5.60;;;4.63;;
20458;SDS011;10388;52.314;7.938;2023-03-23T17:27:20;5.80;;;4.10;;
20458;SDS011;10388;52.314;7.938;2023-03-23T17:29:51;5.43;;;3.67;;
20458;SDS011;10388;52.314;7.938;2023-03-23T17:32:22;3.93;;;3.57;;
20458;SDS011;10388;52.314;7.938;2023-03-23T17:34:54;4.43;;;3.80;;
20458;SDS011;10388;52.314;7.938;2023-03-23T17:37:24;6.47;;;5.00;;
20458;SDS011;10388;52.314;7.938;2023-03-23T17:39:55;6.13;;;5.50;;
20458;SDS011;10388;52.314;7.938;2023-03-23T17:42:26;7.13;;;5.13;;
20458;SDS011;10388;52.314;7.938;2023-03-23T17:44:58;7.27;;;6.50;;
20458;SDS011;10388;52.314;7.938;2023-03-23T17:47:28;8.43;;;6.37;;
20458;SDS011;10388;52.314;7.938;2023-03-23T17:49:59;9.00;;;7.03;;
20458;SDS011;10388;52.314;7.938;2023-03-23T17:52:30;8.30;;;6.87;;
20458;SDS011;10388;52.314;7.938;2023-03-23T17:55:00;8.50;;;7.60;;
20458;SDS011;10388;52.314;7.938;2023-03-23T17:57:31;8.73;;;6.87;;
20458;SDS011;10388;52.314;7.938;2023-03-23T18:00:03;9.17;;;7.70;;
20458;SDS011;10388;52.314;7.938;2023-03-23T18:02:38;13.43;;;8.20;;
20458;SDS011;10388;52.314;7.938;2023-03-23T18:05:08;10.37;;;7.80;;
20458;SDS011;10388;52.314;7.938;2023-03-23T18:07:39;11.97;;;8.27;;
20458;SDS011;10388;52.314;7.938;2023-03-23T18:10:10;9.93;;;8.33;;
20458;SDS011;10388;52.314;7.938;2023-03-23T18:12:41;10.67;;;7.83;;
20458;SDS011;10388;52.314;7.938;2023-03-23T18:15:12;8.07;;;6.97;;
20458;SDS011;10388;52.314;7.938;2023-03-23T18:17:42;7.83;;;6.97;;
20458;SDS011;10388;52.314;7.938;2023-03-23T18:20:16;9.07;;;7.20;;
20458;SDS011;10388;52.314;7.938;2023-03-23T18:22:47;8.50;;;7.00;;
20458;SDS011;10388;52.314;7.938;2023-03-23T18:25:18;8.67;;;6.67;;
20458;SDS011;10388;52.314;7.938;2023-03-23T18:27:48;7.83;;;5.67;;
20458;SDS011;10388;52.314;7.938;2023-03-23T18:30:19;6.50;;;5.87;;
20458;SDS011;10388;52.314;7.938;2023-03-23T18:32:50;6.60;;;5.40;;
20458;SDS011;10388;52.314;7.938;2023-03-23T18:35:20;6.33;;;5.73;;
20458;SDS011;10388;52.314;7.938;2023-03-23T18:37:51;7.83;;;5.27;;
20458;SDS011;10388;52.314;7.938;2023-03-23T18:40:22;6.73;;;5.20;;
20458;SDS011;10388;52.314;7.938;2023-03-23T18:42:52;9.70;;;6.17;;
20458;SDS011;10388;52.314;7.938;2023-03-23T18:45:23;8.73;;;6.10;;
20458;SDS011;10388;52.314;7.938;2023-03-23T18:47:53;9.43;;;6.13;;
20458;SDS011;10388;52.314;7.938;2023-03-23T18:50:25;8.27;;;6.17;;
20458;SDS011;10388;52.314;7.938;2023-03-23T18:52:55;9.13;;;6.07;;
20458;SDS011;10388;52.314;7.938;2023-03-23T18:55:26;6.93;;;6.00;;
20458;SDS011;10388;52.314;7.938;2023-03-23T18:57:56;8.47;;;5.90;;
20458;SDS011;10388;52.314;7.938;2023-03-23T19:00:29;10.10;;;6.63;;
20458;SDS011;10388;52.314;7.938;2023-03-23T19:02:59;12.53;;;7.90;;
20458;SDS011;10388;52.314;7.938;2023-03-23T19:05:30;9.70;;;6.80;;
20458;SDS011;10388;52.314;7.938;2023-03-23T19:08:02;10.00;;;7.43;;
20458;SDS011;10388;52.314;7.938;2023-03-23T19:10:40;10.30;;;7.60;;
20458;SDS011;10388;52.314;7.938;2023-03-23T19:13:11;9.00;;;6.90;;
20458;SDS011;10388;52.314;7.938;2023-03-23T19:15:42;10.90;;;7.97;;
20458;SDS011;10388;52.314;7.938;2023-03-23T19:18:12;8.40;;;7.30;;
20458;SDS011;10388;52.314;7.938;2023-03-23T19:20:43;8.07;;;6.93;;
20458;SDS011;10388;52.314;7.938;2023-03-23T19:23:14;7.53;;;6.40;;
20458;SDS011;10388;52.314;7.938;2023-03-23T19:25:49;8.97;;;6.43;;
20458;SDS011;10388;52.314;7.938;2023-03-23T19:28:21;11.07;;;6.83;;
20458;SDS011;10388;52.314;7.938;2023-03-23T19:30:53;10.80;;;6.67;;
20458;SDS011;10388;52.314;7.938;2023-03-23T19:33:25;9.13;;;5.40;;
20458;SDS011;10388;52.314;7.938;2023-03-23T19:35:56;10.13;;;5.83;;
20458;SDS011;10388;52.314;7.938;2023-03-23T19:38:26;8.97;;;6.17;;
20458;SDS011;10388;52.314;7.938;2023-03-23T19:40:57;6.13;;;5.30;;
20458;SDS011;10388;52.314;7.938;2023-03-23T19:43:30;9.43;;;5.63;;
20458;SDS011;10388;52.314;7.938;2023-03-23T19:46:00;8.90;;;4.80;;
20458;SDS011;10388;52.314;7.938;2023-03-23T19:48:31;7.77;;;4.87;;
20458;SDS011;10388;52.314;7.938;2023-03-23T19:51:02;5.50;;;4.47;;
20458;SDS011;10388;52.314;7.938;2023-03-23T19:53:33;6.97;;;4.33;;
20458;SDS011;10388;52.314;7.938;2023-03-23T19:56:04;4.83;;;4.33;;
20458;SDS011;10388;52.314;7.938;2023-03-23T19:58:42;6.27;;;4.20;;
20458;SDS011;10388;52.314;7.938;2023-03-23T20:01:13;9.27;;;4.70;;
20458;SDS011;10388;52.314;7.938;2023-03-23T20:03:44;6.90;;;3.83;;